createdAt,value
2023-04-14T00:01:34.844Z,12.66
2023-04-14T00:04:37.473Z,12.94
2023-04-14T00:07:39.676Z,12.71
2023-04-14T00:10:41.727Z,12.90
2023-04-14T00:13:43.646Z,12.94
2023-04-14T00:16:46.485Z,12.68
2023-04-14T00:19:48.484Z,12.74
2023-04-14T00:22:50.369Z,13.39
2023-04-14T00:25:52.301Z,13.47
2023-04-14T00:28:54.162Z,13.03
2023-04-14T00:31:56.356Z,13.75
2023-04-14T00:35:00.090Z,13.67
2023-04-14T00:38:02.164Z,14.14
2023-04-14T00:41:04.107Z,14.03
2023-04-14T00:44:05.962Z,14.09
2023-04-14T00:47:07.924Z,13.69
2023-04-14T00:50:10.125Z,14.17
2023-04-14T00:53:12.666Z,14.18
2023-04-14T00:56:14.547Z,14.15
2023-04-14T00:59:16.807Z,13.68
2023-04-14T01:02:18.753Z,14.22
2023-04-14T01:05:20.846Z,13.65
2023-04-14T01:08:22.864Z,13.24
2023-04-14T01:11:31.243Z,13.04
2023-04-14T01:14:39.654Z,13.01
2023-04-14T01:18:00.069Z,13.01
2023-04-14T01:21:07.090Z,12.77
2023-04-14T01:24:18.297Z,13.08
2023-04-14T01:27:49.446Z,12.97
2023-04-14T01:30:51.286Z,12.83
2023-04-14T01:34:04.332Z,13.28
2023-04-14T01:37:11.313Z,12.48
2023-04-14T01:40:14.491Z,12.83
2023-04-14T01:43:16.646Z,13.18
2023-04-14T01:46:18.610Z,12.76
2023-04-14T01:49:20.614Z,12.52
2023-04-14T01:52:22.491Z,13.19
2023-04-14T01:55:25.596Z,12.98
2023-04-14T01:58:28.647Z,13.40
2023-04-14T02:01:30.680Z,13.23
2023-04-14T02:04:32.616Z,12.94
2023-04-14T02:07:34.550Z,13.63
2023-04-14T02:10:36.448Z,13.47
2023-04-14T02:13:38.852Z,13.81
2023-04-14T02:16:40.957Z,12.86
2023-04-14T02:19:42.872Z,12.77
2023-04-14T02:22:44.800Z,12.90
2023-04-14T02:25:54.651Z,12.59
2023-04-14T02:29:16.798Z,13.35
2023-04-14T02:32:21.605Z,13.51
2023-04-14T02:35:27.632Z,14.21
2023-04-14T02:38:31.116Z,13.76
2023-04-14T02:41:33.086Z,13.99
2023-04-14T02:44:35.644Z,13.41
2023-04-14T02:47:38.544Z,13.20
2023-04-14T02:50:41.249Z,13.12
2023-04-14T02:53:43.077Z,13.24
2023-04-14T02:56:44.943Z,13.27
2023-04-14T02:59:46.872Z,13.07
2023-04-14T03:02:48.746Z,12.97
2023-04-14T03:05:50.670Z,13.55
2023-04-14T03:08:52.541Z,13.38
2023-04-14T03:11:55.113Z,13.99
2023-04-14T03:14:56.974Z,13.73
2023-04-14T03:17:59.111Z,13.69
2023-04-14T03:21:01.880Z,13.73
2023-04-14T03:24:03.890Z,13.65
2023-04-14T03:27:07.398Z,13.25
2023-04-14T03:30:10.098Z,13.03
2023-04-14T03:33:13.094Z,13.04
2023-04-14T03:36:15.152Z,12.90
2023-04-14T03:39:17.091Z,13.38
2023-04-14T03:42:19.890Z,13.54
2023-04-14T03:45:23.803Z,13.70
2023-04-14T03:48:29.954Z,14.42
2023-04-14T03:51:31.960Z,14.04
2023-04-14T03:54:33.873Z,13.81
2023-04-14T03:57:36.448Z,14.70
2023-04-14T04:00:38.260Z,14.36
2023-04-14T04:03:40.266Z,13.51
2023-04-14T04:06:43.288Z,14.68
2023-04-14T04:09:45.887Z,14.36
2023-04-14T04:12:48.006Z,13.98
2023-04-14T04:15:50.637Z,13.75
2023-04-14T04:18:52.598Z,13.75
2023-04-14T04:21:56.552Z,14.07
2023-04-14T04:24:58.564Z,14.78
2023-04-14T04:28:00.531Z,14.18
2023-04-14T04:31:03.523Z,13.79
2023-04-14T04:34:05.767Z,14.81
2023-04-14T04:37:07.669Z,14.08
2023-04-14T04:40:10.045Z,13.63
2023-04-14T04:43:11.900Z,14.25
2023-04-14T04:46:19.647Z,14.09
2023-04-14T04:49:21.737Z,14.04
2023-04-14T04:52:25.950Z,14.05
2023-04-14T04:55:27.984Z,14.66
2023-04-14T04:58:29.824Z,13.95
2023-04-14T05:01:31.908Z,13.81
2023-04-14T05:04:33.964Z,14.16
2023-04-14T05:07:36.114Z,14.06
2023-04-14T05:10:37.976Z,14.26
2023-04-14T05:13:39.770Z,13.36
2023-04-14T05:16:41.634Z,13.89
2023-04-14T05:19:43.593Z,13.13
2023-04-14T05:22:46.007Z,14.57
2023-04-14T05:25:47.867Z,13.05
2023-04-14T05:28:49.769Z,13.49
2023-04-14T05:31:51.781Z,13.48
2023-04-14T05:34:53.756Z,13.31
2023-04-14T05:37:55.827Z,13.93
2023-04-14T05:40:57.747Z,14.11
2023-04-14T05:44:00.266Z,13.91
2023-04-14T05:47:02.586Z,14.07
2023-04-14T05:50:04.867Z,13.90
2023-04-14T05:53:07.104Z,13.70
2023-04-14T05:56:11.534Z,14.96
2023-04-14T05:59:13.586Z,14.57
2023-04-14T06:02:15.644Z,14.47
2023-04-14T06:05:17.792Z,14.61
2023-04-14T06:08:20.604Z,15.15
2023-04-14T06:11:22.464Z,14.03
2023-04-14T06:14:24.376Z,14.68
2023-04-14T06:17:26.362Z,14.08
2023-04-14T06:20:29.194Z,15.28
2023-04-14T06:23:32.783Z,13.93
2023-04-14T06:26:34.701Z,15.06
2023-04-14T06:29:36.675Z,14.22
2023-04-14T06:32:38.634Z,13.92
2023-04-14T06:35:40.836Z,14.56
2023-04-14T06:38:42.790Z,14.97
2023-04-14T06:41:44.636Z,14.72
2023-04-14T06:44:46.508Z,14.59
2023-04-14T06:47:48.529Z,14.45
2023-04-14T06:50:56.808Z,13.78
2023-04-14T06:53:58.711Z,14.61
2023-04-14T06:57:01.626Z,14.10
2023-04-14T07:00:04.477Z,14.77
2023-04-14T07:03:06.607Z,14.93
2023-04-14T07:06:10.326Z,14.26
2023-04-14T07:09:13.336Z,14.45
2023-04-14T07:12:16.035Z,15.16
2023-04-14T07:15:18.074Z,15.06
2023-04-14T07:18:20.062Z,14.66
2023-04-14T07:21:22.153Z,14.51
2023-04-14T07:24:24.095Z,15.54
2023-04-14T07:27:28.690Z,16.47
2023-04-14T07:30:30.612Z,16.41
2023-04-14T07:33:32.672Z,15.98
2023-04-14T07:36:34.678Z,16.35
2023-04-14T07:39:36.497Z,15.26
2023-04-14T07:42:38.422Z,15.27
2023-04-14T07:45:40.303Z,15.44
2023-04-14T07:48:42.716Z,15.93
2023-04-14T07:51:44.868Z,14.58
2023-04-14T07:54:46.812Z,14.74
2023-04-14T07:57:48.820Z,15.48
2023-04-14T08:00:51.246Z,15.74
2023-04-14T08:03:53.283Z,16.00
2023-04-14T08:06:55.803Z,16.57
2023-04-14T08:09:57.721Z,16.80
2023-04-14T08:13:01.578Z,16.56
2023-04-14T08:16:05.063Z,15.93
2023-04-14T08:19:07.089Z,16.10
2023-04-14T08:22:08.968Z,15.81
2023-04-14T08:25:14.727Z,16.08
2023-04-14T08:28:17.457Z,15.93
2023-04-14T08:31:22.293Z,15.57
2023-04-14T08:34:28.442Z,16.24
2023-04-14T08:37:31.214Z,16.41
2023-04-14T08:40:37.516Z,16.24
2023-04-14T08:43:39.526Z,16.31
2023-04-14T08:46:41.683Z,15.87
2023-04-14T08:49:47.093Z,16.36
2023-04-14T08:52:49.482Z,15.64
2023-04-14T08:55:51.441Z,15.38
2023-04-14T08:58:53.616Z,15.85
2023-04-14T09:01:56.056Z,15.95
2023-04-14T09:04:58.682Z,15.43
2023-04-14T09:08:00.811Z,15.41
2023-04-14T09:11:04.048Z,15.10
2023-04-14T09:14:08.788Z,14.96
2023-04-14T09:17:10.765Z,14.96
2023-04-14T09:20:38.700Z,16.28
2023-04-14T09:23:34.791Z,16.01
2023-04-14T09:26:37.684Z,15.19
2023-04-14T09:29:39.626Z,16.12
2023-04-14T09:32:41.570Z,16.02
2023-04-14T09:35:50.331Z,15.53
2023-04-14T09:38:52.728Z,16.09
2023-04-14T09:41:54.904Z,15.04
2023-04-14T09:44:57.142Z,15.64
2023-04-14T09:48:08.606Z,15.02
2023-04-14T09:51:10.811Z,14.40
2023-04-14T09:54:13.065Z,14.13
2023-04-14T09:57:24.641Z,14.75
2023-04-14T10:00:26.533Z,14.88
2023-04-14T10:03:47.607Z,14.95
2023-04-14T10:06:49.720Z,14.80
2023-04-14T10:09:51.652Z,15.06
2023-04-14T10:12:54.518Z,15.23
2023-04-14T10:15:56.574Z,14.65
2023-04-14T10:18:58.927Z,14.67
2023-04-14T10:22:01.449Z,15.20
2023-04-14T10:25:05.241Z,14.41
2023-04-14T10:28:07.452Z,14.15
2023-04-14T10:31:20.343Z,14.29
2023-04-14T10:34:25.878Z,14.31
2023-04-14T10:37:27.809Z,13.63
2023-04-14T10:40:30.097Z,14.84
2023-04-14T10:43:32.304Z,14.63
2023-04-14T10:46:43.915Z,14.02
2023-04-14T10:49:46.068Z,15.10
2023-04-14T10:52:51.104Z,14.77
2023-04-14T10:55:57.216Z,14.01
2023-04-14T10:58:59.773Z,14.42
2023-04-14T11:02:01.998Z,13.66
2023-04-14T11:05:11.630Z,14.48
2023-04-14T11:08:15.369Z,14.01
2023-04-14T11:11:17.274Z,14.28
2023-04-14T11:14:25.177Z,13.98
2023-04-14T11:17:29.556Z,13.69
2023-04-14T11:20:31.560Z,14.13
2023-04-14T11:23:33.843Z,14.06
2023-04-14T11:26:36.646Z,14.54
2023-04-14T11:29:39.203Z,14.93
2023-04-14T11:32:51.546Z,14.28
2023-04-14T11:35:53.755Z,14.43
2023-04-14T11:38:55.691Z,14.56
2023-04-14T11:42:00.619Z,14.58
2023-04-14T11:45:03.075Z,14.08
2023-04-14T11:48:05.712Z,14.10
2023-04-14T11:51:07.670Z,14.21
2023-04-14T11:54:11.956Z,14.07
2023-04-14T11:57:14.186Z,13.34
2023-04-14T12:00:16.268Z,13.08
2023-04-14T12:03:18.436Z,13.47
2023-04-14T12:06:20.536Z,13.47
2023-04-14T12:09:22.638Z,13.36
2023-04-14T12:12:25.040Z,13.30
2023-04-14T12:15:28.840Z,13.52
2023-04-14T12:18:30.740Z,13.24
2023-04-14T12:21:32.678Z,13.40
2023-04-14T12:24:38.012Z,13.08
2023-04-14T12:27:39.976Z,13.36
2023-04-14T12:30:42.261Z,13.12
2023-04-14T12:33:44.217Z,13.12
2023-04-14T12:36:51.071Z,12.84
2023-04-14T12:39:54.277Z,12.68
2023-04-14T12:42:56.712Z,12.17
2023-04-14T12:45:58.827Z,12.61
2023-04-14T12:49:00.830Z,12.07
2023-04-14T12:52:03.904Z,12.25
2023-04-14T12:55:06.720Z,11.63
2023-04-14T12:58:10.021Z,11.55
2023-04-14T13:01:12.175Z,11.91
2023-04-14T13:04:14.318Z,12.27
2023-04-14T13:07:16.288Z,12.32
2023-04-14T13:10:18.260Z,12.03
2023-04-14T13:13:20.133Z,12.18
2023-04-14T13:16:22.676Z,11.99
2023-04-14T13:19:28.051Z,11.71
2023-04-14T13:22:30.036Z,11.78
2023-04-14T13:25:31.948Z,12.07
2023-04-14T13:28:33.872Z,11.84
2023-04-14T13:31:36.127Z,12.20
2023-04-14T13:34:38.539Z,11.90
2023-04-14T13:37:41.261Z,11.67
2023-04-14T13:40:43.158Z,11.34
2023-04-14T13:43:45.108Z,11.46
2023-04-14T13:46:49.035Z,11.81
2023-04-14T13:49:51.021Z,11.78
2023-04-14T13:52:53.196Z,12.18
2023-04-14T13:55:55.082Z,11.98
2023-04-14T13:58:57.070Z,11.80
2023-04-14T14:01:59.019Z,12.12
2023-04-14T14:05:01.077Z,12.26
2023-04-14T14:08:03.375Z,12.44
2023-04-14T14:11:05.930Z,12.70
2023-04-14T14:14:07.938Z,12.60
2023-04-14T14:17:10.258Z,12.09
2023-04-14T14:20:12.140Z,11.93
2023-04-14T14:23:15.673Z,12.04
2023-04-14T14:26:17.579Z,12.09
2023-04-14T14:29:19.515Z,11.98
2023-04-14T14:32:21.528Z,11.63
2023-04-14T14:35:23.470Z,11.28
2023-04-14T14:38:25.346Z,10.73
2023-04-14T14:41:27.488Z,10.60
2023-04-14T14:44:29.383Z,10.87
2023-04-14T14:47:31.751Z,10.57
2023-04-14T14:50:33.808Z,10.53
2023-04-14T14:53:36.254Z,11.00
2023-04-14T14:56:38.395Z,10.57
2023-04-14T14:59:41.278Z,10.49
2023-04-14T15:02:43.373Z,10.26
2023-04-14T15:05:46.531Z,10.33
2023-04-14T15:08:49.563Z,10.12
2023-04-14T15:11:51.417Z,10.16
2023-04-14T15:14:53.351Z,10.34
2023-04-14T15:17:55.526Z,10.50
2023-04-14T15:20:57.451Z,10.38
2023-04-14T15:23:59.987Z,10.61
2023-04-14T15:27:02.673Z,10.75
2023-04-14T15:30:04.856Z,11.30
2023-04-14T15:33:07.028Z,11.18
2023-04-14T15:36:09.076Z,9.96
2023-04-14T15:39:10.976Z,9.88
2023-04-14T15:42:12.894Z,10.36
2023-04-14T15:45:14.828Z,10.50
2023-04-14T15:48:16.736Z,10.44
2023-04-14T15:51:18.548Z,10.56
2023-04-14T15:54:20.644Z,10.64
2023-04-14T15:57:24.014Z,10.80
2023-04-14T16:00:26.188Z,10.47
2023-04-14T16:03:28.357Z,10.70
2023-04-14T16:06:30.478Z,10.17
2023-04-14T16:09:32.642Z,10.04
2023-04-14T16:12:35.345Z,9.78
2023-04-14T16:15:37.351Z,9.98
2023-04-14T16:18:39.344Z,10.39
2023-04-14T16:21:41.264Z,9.63
2023-04-14T16:24:43.177Z,10.64
2023-04-14T16:27:45.147Z,10.10
2023-04-14T16:30:47.179Z,10.73
2023-04-14T16:33:49.039Z,9.92
2023-04-14T16:36:51.367Z,9.70
2023-04-14T16:39:56.228Z,9.53
2023-04-14T16:42:58.209Z,9.87
2023-04-14T16:46:01.286Z,9.68
2023-04-14T16:49:03.447Z,9.90
2023-04-14T16:52:05.617Z,9.55
2023-04-14T16:55:07.635Z,9.18
2023-04-14T16:58:09.913Z,9.56
2023-04-14T17:01:11.893Z,9.60
2023-04-14T17:04:14.111Z,9.94
2023-04-14T17:07:16.207Z,9.84
2023-04-14T17:10:18.221Z,9.55
2023-04-14T17:13:20.233Z,9.62
2023-04-14T17:16:22.833Z,8.96
2023-04-14T17:19:24.944Z,9.20
2023-04-14T17:22:27.408Z,9.74
2023-04-14T17:25:29.416Z,9.42
2023-04-14T17:28:32.804Z,9.41
2023-04-14T17:31:35.043Z,9.44
2023-04-14T17:34:36.990Z,10.12
2023-04-14T17:37:38.925Z,9.99
2023-04-14T17:40:40.881Z,9.74
2023-04-14T17:43:42.753Z,10.03
2023-04-14T17:46:46.143Z,10.73
2023-04-14T17:49:49.186Z,10.20
2023-04-14T17:52:51.403Z,9.67
2023-04-14T17:55:53.642Z,9.17
2023-04-14T17:58:55.572Z,9.28
2023-04-14T18:01:57.559Z,9.04
2023-04-14T18:04:59.537Z,8.98
2023-04-14T18:08:01.555Z,9.36
2023-04-14T18:11:03.421Z,9.23
2023-04-14T18:14:05.316Z,8.90
2023-04-14T18:17:07.359Z,8.82
2023-04-14T18:20:12.173Z,8.24
2023-04-14T18:23:14.039Z,8.90
2023-04-14T18:29:20.757Z,8.85
2023-04-14T18:32:25.228Z,9.16
2023-04-14T18:35:27.693Z,9.70
2023-04-14T18:38:29.632Z,9.56
2023-04-14T18:41:31.474Z,9.45
2023-04-14T18:44:33.743Z,9.73
2023-04-14T18:47:35.705Z,9.69
2023-04-14T18:50:37.532Z,9.03
2023-04-14T18:53:41.925Z,9.74
2023-04-14T18:56:43.847Z,10.03
2023-04-14T18:59:45.810Z,9.74
2023-04-14T19:02:47.811Z,9.77
2023-04-14T19:05:50.140Z,9.56
2023-04-14T19:08:52.755Z,9.58
2023-04-14T19:11:55.650Z,9.88
2023-04-14T19:14:58.057Z,9.31
2023-04-14T19:18:01.180Z,9.54
2023-04-14T19:21:03.268Z,8.41
2023-04-14T19:24:05.307Z,9.46
2023-04-14T19:27:08.741Z,8.95
2023-04-14T19:30:10.914Z,9.26
2023-04-14T19:33:13.104Z,8.72
2023-04-14T19:36:15.484Z,8.51
2023-04-14T19:39:19.449Z,9.62
2023-04-14T19:42:21.318Z,9.70
2023-04-14T19:45:23.243Z,9.50
2023-04-14T19:48:25.393Z,9.34
2023-04-14T19:51:27.986Z,9.24
2023-04-14T19:54:29.828Z,8.80
2023-04-14T19:57:32.060Z,8.98
2023-04-14T20:00:40.935Z,9.09
2023-04-14T20:04:05.724Z,8.36
2023-04-14T20:07:05.548Z,9.63
2023-04-14T20:10:08.348Z,9.20
2023-04-14T20:13:10.286Z,9.58
2023-04-14T20:16:12.779Z,9.06
2023-04-14T20:19:14.727Z,9.09
2023-04-14T20:22:17.065Z,9.28
2023-04-14T20:25:18.979Z,9.29
2023-04-14T20:28:23.098Z,9.16
2023-04-14T20:31:25.621Z,9.04
2023-04-14T20:34:27.575Z,9.06
2023-04-14T20:37:29.879Z,8.47
2023-04-14T20:40:32.620Z,8.61
2023-04-14T20:43:34.614Z,9.14
2023-04-14T20:46:36.656Z,9.46
2023-04-14T20:49:39.296Z,8.03
2023-04-14T20:52:41.707Z,8.37
2023-04-14T20:55:43.523Z,8.45
2023-04-14T20:58:45.728Z,7.90
2023-04-14T21:01:48.679Z,7.98
2023-04-14T21:04:50.738Z,8.68
2023-04-14T21:07:52.694Z,7.63
2023-04-14T21:11:16.319Z,7.32
2023-04-14T21:15:31.116Z,7.59
2023-04-14T21:17:38.207Z,7.62
2023-04-14T21:20:40.164Z,8.18
2023-04-14T21:23:42.371Z,7.93
2023-04-14T21:26:44.260Z,8.45
2023-04-14T21:29:46.047Z,9.16
2023-04-14T21:32:48.272Z,8.37
2023-04-14T21:35:50.738Z,8.11
2023-04-14T21:38:52.624Z,8.51
2023-04-14T21:41:54.762Z,8.51
2023-04-14T21:44:56.646Z,8.95
2023-04-14T21:47:59.107Z,8.41
2023-04-14T21:51:01.436Z,8.79
2023-04-14T21:54:03.407Z,9.23
2023-04-14T21:57:05.253Z,9.35
2023-04-14T22:00:13.161Z,8.58
2023-04-14T22:03:15.189Z,8.18
2023-04-14T22:06:17.646Z,8.70
2023-04-14T22:09:19.510Z,7.63
2023-04-14T22:12:21.377Z,8.36
2023-04-14T22:15:23.482Z,7.17
2023-04-14T22:18:25.320Z,7.78
2023-04-14T22:21:27.191Z,7.96
2023-04-14T22:24:29.453Z,8.59
2023-04-14T22:27:32.133Z,8.47
2023-04-14T22:30:33.975Z,8.15
2023-04-14T22:33:36.017Z,7.60
2023-04-14T22:36:38.165Z,7.47
2023-04-14T22:39:40.641Z,7.67
2023-04-14T22:42:42.529Z,7.38
2023-04-14T22:45:44.334Z,7.75
2023-04-14T22:48:46.264Z,7.54
2023-04-14T22:51:48.082Z,7.11
2023-04-14T22:54:50.177Z,8.57
2023-04-14T22:57:52.644Z,8.76
2023-04-14T23:00:54.520Z,8.32
2023-04-14T23:03:56.436Z,8.59
2023-04-14T23:06:58.456Z,8.50
2023-04-14T23:10:00.266Z,8.85
2023-04-14T23:13:02.139Z,8.77
2023-04-14T23:16:04.177Z,8.41
2023-04-14T23:19:06.656Z,8.46
2023-04-14T23:22:08.579Z,8.59
2023-04-14T23:25:10.715Z,7.76
2023-04-14T23:28:12.611Z,8.41
2023-04-14T23:31:14.513Z,9.33
2023-04-14T23:34:16.501Z,8.67
2023-04-14T23:37:18.463Z,9.04
2023-04-14T23:40:20.714Z,8.31
2023-04-14T23:43:23.678Z,8.53
2023-04-14T23:46:26.492Z,8.73
2023-04-14T23:49:34.430Z,8.52
2023-04-14T23:52:37.692Z,8.39
2023-04-14T23:55:39.634Z,8.17
2023-04-14T23:58:41.480Z,8.00
